createdAt,value
2022-08-31T00:00:08.264Z,23.10
2022-08-31T00:02:59.251Z,23.06
2022-08-31T00:05:32.469Z,23.01
2022-08-31T00:08:06.205Z,22.98
2022-08-31T00:10:41.318Z,22.94
2022-08-31T00:13:15.963Z,22.93
2022-08-31T00:15:52.228Z,22.90
2022-08-31T00:18:25.847Z,22.87
2022-08-31T00:20:59.347Z,22.84
2022-08-31T00:23:32.719Z,22.81
2022-08-31T00:26:05.746Z,22.78
2022-08-31T00:28:39.168Z,22.77
2022-08-31T00:31:12.412Z,22.74
2022-08-31T00:33:48.102Z,22.72
2022-08-31T00:36:23.548Z,22.71
2022-08-31T00:38:58.059Z,22.68
2022-08-31T00:41:32.750Z,22.66
2022-08-31T00:44:09.844Z,22.65
2022-08-31T00:46:44.680Z,22.62
2022-08-31T00:49:23.651Z,22.59
2022-08-31T00:52:10.246Z,22.58
2022-08-31T00:55:03.294Z,22.56
2022-08-31T00:57:40.105Z,22.52
2022-08-31T01:00:18.048Z,22.47
2022-08-31T01:02:51.335Z,22.46
2022-08-31T01:05:24.366Z,22.42
2022-08-31T01:07:58.317Z,22.38
2022-08-31T01:10:37.829Z,22.43
2022-08-31T01:13:13.316Z,22.45
2022-08-31T01:15:51.405Z,22.43
2022-08-31T01:18:27.020Z,22.39
2022-08-31T01:21:20.371Z,22.35
2022-08-31T01:23:56.679Z,22.29
2022-08-31T01:26:32.638Z,22.23
2022-08-31T01:29:08.304Z,22.21
2022-08-31T01:31:45.749Z,22.19
2022-08-31T01:34:18.787Z,22.17
2022-08-31T01:36:53.076Z,22.13
2022-08-31T01:39:26.407Z,22.08
2022-08-31T01:42:00.061Z,22.02
2022-08-31T01:44:34.533Z,22.00
2022-08-31T01:47:07.740Z,21.99
2022-08-31T01:49:41.058Z,21.95
2022-08-31T01:52:14.446Z,21.92
2022-08-31T01:54:47.429Z,21.89
2022-08-31T01:57:32.943Z,21.85
2022-08-31T02:00:14.019Z,21.83
2022-08-31T02:02:47.740Z,21.80
2022-08-31T02:05:21.269Z,21.76
2022-08-31T02:07:54.175Z,21.72
2022-08-31T02:10:27.989Z,21.67
2022-08-31T02:13:02.266Z,21.64
2022-08-31T02:15:34.608Z,21.60
2022-08-31T02:18:08.974Z,21.57
2022-08-31T02:20:44.491Z,21.54
2022-08-31T02:23:19.120Z,21.47
2022-08-31T02:25:52.516Z,21.40
2022-08-31T02:28:26.100Z,21.33
2022-08-31T02:31:00.099Z,21.26
2022-08-31T02:33:35.065Z,21.22
2022-08-31T02:36:09.115Z,21.21
2022-08-31T02:38:43.850Z,21.21
2022-08-31T02:41:18.432Z,21.19
2022-08-31T02:43:51.459Z,21.14
2022-08-31T02:46:24.774Z,21.07
2022-08-31T02:48:59.573Z,21.05
2022-08-31T02:51:32.940Z,21.06
2022-08-31T02:54:07.983Z,21.07
2022-08-31T02:56:41.142Z,21.10
2022-08-31T02:59:14.315Z,21.15
2022-08-31T03:01:48.519Z,21.20
2022-08-31T03:04:21.443Z,21.22
2022-08-31T03:06:54.678Z,21.24
2022-08-31T03:09:27.818Z,21.22
2022-08-31T03:12:01.630Z,21.22
2022-08-31T03:14:35.117Z,21.23
2022-08-31T03:17:08.228Z,21.24
2022-08-31T03:19:41.907Z,21.26
2022-08-31T03:22:15.953Z,21.28
2022-08-31T03:24:50.140Z,21.34
2022-08-31T03:27:25.068Z,21.37
2022-08-31T03:29:58.465Z,21.37
2022-08-31T03:32:33.353Z,21.40
2022-08-31T03:35:07.200Z,21.46
2022-08-31T03:37:40.410Z,21.53
2022-08-31T03:40:16.698Z,21.62
2022-08-31T03:42:51.825Z,21.70
2022-08-31T03:45:25.758Z,21.74
2022-08-31T03:47:59.875Z,21.73
2022-08-31T03:50:34.706Z,21.70
2022-08-31T03:53:09.876Z,21.66
2022-08-31T03:55:45.087Z,21.66
2022-08-31T03:58:18.407Z,21.66
2022-08-31T04:00:51.780Z,21.68
2022-08-31T04:03:27.019Z,21.71
2022-08-31T04:06:06.142Z,21.74
2022-08-31T04:08:56.872Z,21.76
2022-08-31T04:11:45.323Z,21.79
2022-08-31T04:14:34.631Z,21.80
2022-08-31T04:19:52.781Z,21.73
2022-08-31T04:22:30.554Z,21.78
2022-08-31T04:25:21.656Z,21.85
2022-08-31T04:27:56.233Z,21.90
2022-08-31T04:30:31.551Z,21.95
2022-08-31T04:33:04.713Z,22.01
2022-08-31T04:35:40.984Z,22.08
2022-08-31T04:38:13.967Z,22.17
2022-08-31T04:40:47.687Z,22.24
2022-08-31T04:43:20.787Z,22.32
2022-08-31T04:45:55.497Z,22.36
2022-08-31T04:48:28.580Z,22.42
2022-08-31T04:51:06.303Z,22.50
2022-08-31T04:53:40.750Z,22.61
2022-08-31T04:56:18.298Z,22.71
2022-08-31T04:58:55.220Z,22.80
2022-08-31T05:01:42.325Z,22.92
2022-08-31T05:04:17.793Z,23.02
2022-08-31T05:06:52.911Z,23.10
2022-08-31T05:09:27.726Z,23.19
2022-08-31T05:12:00.900Z,23.24
2022-08-31T05:14:37.193Z,23.33
2022-08-31T05:17:14.798Z,23.41
2022-08-31T05:19:47.692Z,23.51
2022-08-31T05:22:21.249Z,23.58
2022-08-31T05:24:54.813Z,23.67
2022-08-31T05:27:27.944Z,23.76
2022-08-31T05:30:01.173Z,23.85
2022-08-31T05:32:51.773Z,23.92
2022-08-31T05:35:25.305Z,23.98
2022-08-31T05:37:58.200Z,24.05
2022-08-31T05:40:31.299Z,24.12
2022-08-31T05:43:04.287Z,24.20
2022-08-31T05:45:37.199Z,24.27
2022-08-31T05:48:10.388Z,24.33
2022-08-31T05:50:43.523Z,24.45
2022-08-31T05:53:18.938Z,24.56
2022-08-31T05:55:53.659Z,24.66
2022-08-31T05:58:26.790Z,24.76
2022-08-31T06:01:00.065Z,24.85
2022-08-31T06:03:35.255Z,24.96
2022-08-31T06:06:09.885Z,25.03
2022-08-31T06:08:44.387Z,25.12
2022-08-31T06:11:18.017Z,25.19
2022-08-31T06:13:54.907Z,25.26
2022-08-31T06:16:30.589Z,25.33
2022-08-31T06:19:07.517Z,25.41
2022-08-31T06:21:49.782Z,25.50
2022-08-31T06:24:21.314Z,25.56
2022-08-31T06:26:59.683Z,25.65
2022-08-31T06:29:35.233Z,25.71
2022-08-31T06:32:10.374Z,25.78
2022-08-31T06:34:47.907Z,25.85
2022-08-31T06:37:22.588Z,25.90
2022-08-31T06:40:13.754Z,25.95
2022-08-31T06:42:51.582Z,26.02
2022-08-31T06:45:35.300Z,26.09
2022-08-31T06:48:10.329Z,26.17
2022-08-31T06:50:43.311Z,26.27
2022-08-31T06:53:16.580Z,26.34
2022-08-31T06:56:20.189Z,26.43
2022-08-31T06:59:09.178Z,26.51
2022-08-31T07:01:53.036Z,26.60
2022-08-31T07:04:28.805Z,26.69
2022-08-31T07:07:01.178Z,26.79
2022-08-31T07:09:34.267Z,26.88
2022-08-31T07:12:07.427Z,26.95
2022-08-31T07:14:40.784Z,27.03
2022-08-31T07:17:13.975Z,27.10
2022-08-31T07:19:46.871Z,27.20
2022-08-31T07:22:57.958Z,27.28
2022-08-31T07:25:42.563Z,27.38
2022-08-31T07:31:33.040Z,27.58
2022-08-31T07:34:08.153Z,27.66
2022-08-31T07:37:01.613Z,27.75
2022-08-31T07:39:54.253Z,27.82
2022-08-31T07:42:33.127Z,27.92
2022-08-31T07:45:12.226Z,28.03
2022-08-31T07:47:47.470Z,28.14
2022-08-31T07:50:22.332Z,28.23
2022-08-31T07:53:07.687Z,28.31
2022-08-31T07:55:58.945Z,28.40
2022-08-31T07:58:40.742Z,28.48
2022-08-31T08:01:16.277Z,28.56
2022-08-31T08:03:51.039Z,28.60
2022-08-31T08:06:42.196Z,28.65
2022-08-31T08:09:24.347Z,28.74
2022-08-31T08:12:07.327Z,28.82
2022-08-31T08:14:49.842Z,28.94
2022-08-31T08:17:24.505Z,29.07
2022-08-31T08:19:59.126Z,29.15
2022-08-31T08:22:51.429Z,29.26
2022-08-31T08:25:09.811Z,29.35
2022-08-31T08:27:45.442Z,29.43
2022-08-31T08:30:21.221Z,29.53
2022-08-31T08:32:54.748Z,29.62
2022-08-31T08:35:29.302Z,29.72
2022-08-31T08:38:07.727Z,29.82
2022-08-31T08:40:44.559Z,29.88
2022-08-31T08:43:26.585Z,29.97
2022-08-31T08:46:06.827Z,30.04
2022-08-31T08:48:39.948Z,30.12
2022-08-31T08:51:18.563Z,30.12
2022-08-31T08:53:57.320Z,30.06
2022-08-31T08:56:34.181Z,30.06
2022-08-31T08:59:12.861Z,30.17
2022-08-31T09:01:47.616Z,30.24
2022-08-31T09:04:50.937Z,30.30
2022-08-31T09:08:01.484Z,30.34
2022-08-31T09:10:42.199Z,30.28
2022-08-31T09:13:40.951Z,30.19
2022-08-31T09:16:22.515Z,30.11
2022-08-31T09:19:02.768Z,30.08
2022-08-31T09:21:45.636Z,30.05
2022-08-31T09:24:27.813Z,29.95
2022-08-31T09:27:21.373Z,29.94
2022-08-31T09:30:01.978Z,30.03
2022-08-31T09:32:37.883Z,30.11
2022-08-31T09:35:24.208Z,30.18
2022-08-31T09:38:04.185Z,30.22
2022-08-31T09:40:48.700Z,30.26
2022-08-31T09:43:29.693Z,30.28
2022-08-31T09:46:30.700Z,30.39
2022-08-31T09:49:05.703Z,30.47
2022-08-31T09:51:40.113Z,30.59
2022-08-31T09:54:28.130Z,30.73
2022-08-31T09:57:03.435Z,30.82
2022-08-31T09:59:49.760Z,30.87
2022-08-31T10:02:30.431Z,30.92
2022-08-31T10:05:07.454Z,30.96
2022-08-31T10:08:01.433Z,30.97
2022-08-31T10:10:40.315Z,31.02
2022-08-31T10:13:23.434Z,31.05
2022-08-31T10:16:03.285Z,31.06
2022-08-31T10:18:50.817Z,31.08
2022-08-31T10:21:31.714Z,31.09
2022-08-31T10:24:37.394Z,31.12
2022-08-31T10:27:28.533Z,31.14
2022-08-31T10:30:33.162Z,31.18
2022-08-31T10:33:29.235Z,31.19
2022-08-31T10:36:03.046Z,31.15
2022-08-31T10:38:46.248Z,31.11
2022-08-31T10:41:38.765Z,31.04
2022-08-31T10:44:46.076Z,30.93
2022-08-31T10:47:32.664Z,30.79
2022-08-31T10:50:01.244Z,30.64
2022-08-31T10:52:46.386Z,30.54
2022-08-31T10:55:50.803Z,30.44
2022-08-31T10:58:43.978Z,30.36
2022-08-31T11:01:33.344Z,30.26
2022-08-31T11:04:36.104Z,30.26
2022-08-31T11:07:43.845Z,30.37
2022-08-31T11:10:53.527Z,30.55
2022-08-31T11:13:51.538Z,30.64
2022-08-31T11:16:49.908Z,30.71
2022-08-31T11:19:39.414Z,30.70
2022-08-31T11:22:45.270Z,30.62
2022-08-31T11:25:48.514Z,30.51
2022-08-31T11:31:47.275Z,30.21
2022-08-31T11:34:29.917Z,30.15
2022-08-31T11:37:04.664Z,30.13
2022-08-31T11:39:42.634Z,30.10
2022-08-31T11:42:32.695Z,30.08
2022-08-31T11:45:14.147Z,30.03
2022-08-31T11:47:47.140Z,29.98
2022-08-31T11:50:43.662Z,29.92
2022-08-31T11:53:36.535Z,29.88
2022-08-31T11:56:11.165Z,29.81
2022-08-31T11:58:45.571Z,29.66
2022-08-31T12:01:24.770Z,29.50
2022-08-31T12:04:06.765Z,29.36
2022-08-31T12:06:45.241Z,29.23
2022-08-31T12:10:06.830Z,29.13
2022-08-31T12:13:08.632Z,29.09
2022-08-31T12:16:23.093Z,29.03
2022-08-31T12:19:45.893Z,29.00
2022-08-31T12:22:46.737Z,28.99
2022-08-31T12:25:34.855Z,28.96
2022-08-31T12:28:18.231Z,28.95
2022-08-31T12:30:56.312Z,28.96
2022-08-31T12:33:31.097Z,28.97
2022-08-31T12:36:21.979Z,28.98
2022-08-31T12:39:22.969Z,28.96
2022-08-31T12:42:00.324Z,28.94
2022-08-31T12:44:52.105Z,28.92
2022-08-31T12:47:38.806Z,28.91
2022-08-31T12:50:31.304Z,28.88
2022-08-31T12:53:31.718Z,28.84
2022-08-31T12:56:21.495Z,28.78
2022-08-31T12:59:14.125Z,28.74
2022-08-31T13:01:50.647Z,28.67
2022-08-31T13:04:24.651Z,28.62
2022-08-31T13:06:57.567Z,28.56
2022-08-31T13:09:49.873Z,28.44
2022-08-31T13:12:26.934Z,28.31
2022-08-31T13:15:00.309Z,28.19
2022-08-31T13:17:39.663Z,28.07
2022-08-31T13:20:13.844Z,27.96
2022-08-31T13:22:48.649Z,27.86
2022-08-31T13:25:27.558Z,27.72
2022-08-31T13:28:02.253Z,27.61
2022-08-31T13:30:38.264Z,27.54
2022-08-31T13:33:32.462Z,27.51
2022-08-31T13:36:33.789Z,27.50
2022-08-31T13:39:31.912Z,27.51
2022-08-31T13:42:09.385Z,27.54
2022-08-31T13:44:44.419Z,27.65
2022-08-31T13:47:24.368Z,27.82
2022-08-31T13:50:12.707Z,27.95
2022-08-31T13:53:25.479Z,28.09
2022-08-31T13:55:43.936Z,28.22
2022-08-31T13:58:32.454Z,28.29
2022-08-31T14:01:26.503Z,28.39
2022-08-31T14:04:00.828Z,28.42
2022-08-31T14:06:37.548Z,28.43
2022-08-31T14:09:19.371Z,28.41
2022-08-31T14:11:57.989Z,28.36
2022-08-31T14:14:33.761Z,28.31
2022-08-31T14:17:09.488Z,28.25
2022-08-31T14:19:44.190Z,28.21
2022-08-31T14:22:36.586Z,28.17
2022-08-31T14:25:12.387Z,28.14
2022-08-31T14:27:45.480Z,28.08
2022-08-31T14:30:19.081Z,28.08
2022-08-31T14:32:54.609Z,28.08
2022-08-31T14:35:27.565Z,28.09
2022-08-31T14:38:01.373Z,28.11
2022-08-31T14:40:34.773Z,28.13
2022-08-31T14:43:07.729Z,28.16
2022-08-31T14:45:43.013Z,28.22
2022-08-31T14:48:17.852Z,28.27
2022-08-31T14:50:51.254Z,28.31
2022-08-31T14:53:24.564Z,28.39
2022-08-31T14:55:57.993Z,28.40
2022-08-31T14:58:32.364Z,28.41
2022-08-31T15:01:06.562Z,28.38
2022-08-31T15:03:45.473Z,28.36
2022-08-31T15:06:20.106Z,28.31
2022-08-31T15:08:54.290Z,28.28
2022-08-31T15:11:27.598Z,28.24
2022-08-31T15:14:03.833Z,28.21
2022-08-31T15:16:37.061Z,28.18
2022-08-31T15:19:13.128Z,28.13
2022-08-31T15:21:58.790Z,28.09
2022-08-31T15:24:30.317Z,28.02
2022-08-31T15:27:03.685Z,27.97
2022-08-31T15:29:37.104Z,27.94
2022-08-31T15:32:11.141Z,27.90
2022-08-31T15:34:46.803Z,27.87
2022-08-31T15:37:20.661Z,27.83
2022-08-31T15:39:53.916Z,27.79
2022-08-31T15:42:26.903Z,27.75
2022-08-31T15:45:01.480Z,27.72
2022-08-31T15:47:56.868Z,27.70
2022-08-31T15:50:32.449Z,27.67
2022-08-31T15:53:10.247Z,27.61
2022-08-31T15:55:44.997Z,27.57
2022-08-31T15:58:24.508Z,27.52
2022-08-31T16:00:54.130Z,27.47
2022-08-31T16:03:27.520Z,27.41
2022-08-31T16:06:01.398Z,27.34
2022-08-31T16:08:34.641Z,27.26
2022-08-31T16:11:12.072Z,27.22
2022-08-31T16:14:01.922Z,27.17
2022-08-31T16:16:42.044Z,27.15
2022-08-31T16:19:34.084Z,27.08
2022-08-31T16:21:52.427Z,27.00
2022-08-31T16:24:26.132Z,26.94
2022-08-31T16:27:00.863Z,26.85
2022-08-31T16:29:34.208Z,26.76
2022-08-31T16:32:09.602Z,26.66
2022-08-31T16:34:43.089Z,26.58
2022-08-31T16:37:15.679Z,26.51
2022-08-31T16:39:48.308Z,26.46
2022-08-31T16:42:21.211Z,26.38
2022-08-31T16:44:59.744Z,26.34
2022-08-31T16:47:30.023Z,26.30
2022-08-31T16:50:04.762Z,26.27
2022-08-31T16:52:38.062Z,26.22
2022-08-31T16:55:13.158Z,26.18
2022-08-31T16:57:46.481Z,26.14
2022-08-31T17:00:19.668Z,26.11
2022-08-31T17:02:54.630Z,26.08
2022-08-31T17:05:27.393Z,26.05
2022-08-31T17:08:00.626Z,26.05
2022-08-31T17:10:34.616Z,26.04
2022-08-31T17:13:09.034Z,26.00
2022-08-31T17:15:41.640Z,25.98
2022-08-31T17:18:16.593Z,25.93
2022-08-31T17:20:51.654Z,25.88
2022-08-31T17:23:26.076Z,25.83
2022-08-31T17:26:00.141Z,25.79
2022-08-31T17:28:35.052Z,25.76
2022-08-31T17:31:08.043Z,25.72
2022-08-31T17:33:41.484Z,25.68
2022-08-31T17:36:15.987Z,25.66
2022-08-31T17:38:55.407Z,25.63
2022-08-31T17:41:29.543Z,25.61
2022-08-31T17:44:03.358Z,25.57
2022-08-31T17:46:37.776Z,25.55
2022-08-31T17:49:10.793Z,25.54
2022-08-31T17:51:48.226Z,25.50
2022-08-31T17:54:31.798Z,25.46
2022-08-31T18:00:09.534Z,25.40
2022-08-31T18:02:42.208Z,25.36
2022-08-31T18:05:16.642Z,25.32
2022-08-31T18:07:51.237Z,25.33
2022-08-31T18:10:25.359Z,25.32
2022-08-31T18:12:58.375Z,25.32
2022-08-31T18:15:31.570Z,25.30
2022-08-31T18:18:04.938Z,25.31
2022-08-31T18:20:42.580Z,25.28
2022-08-31T18:23:16.977Z,25.27
2022-08-31T18:25:50.355Z,25.26
2022-08-31T18:28:23.411Z,25.26
2022-08-31T18:30:56.805Z,25.26
2022-08-31T18:33:31.100Z,25.23
2022-08-31T18:36:08.730Z,25.19
2022-08-31T18:38:41.885Z,25.17
2022-08-31T18:41:32.897Z,25.14
2022-08-31T18:44:24.555Z,25.09
2022-08-31T18:47:05.904Z,25.06
2022-08-31T18:49:42.326Z,25.01
2022-08-31T18:52:22.993Z,24.96
2022-08-31T18:54:59.004Z,24.90
2022-08-31T18:57:33.935Z,24.83
2022-08-31T19:00:10.921Z,24.77
2022-08-31T19:02:45.147Z,24.71
2022-08-31T19:05:19.030Z,24.64
2022-08-31T19:07:52.419Z,24.55
2022-08-31T19:10:27.711Z,24.49
2022-08-31T19:13:02.827Z,24.49
2022-08-31T19:15:40.954Z,24.49
2022-08-31T19:18:14.314Z,24.48
2022-08-31T19:20:47.372Z,24.43
2022-08-31T19:23:20.814Z,24.42
2022-08-31T19:25:54.838Z,24.38
2022-08-31T19:28:27.742Z,24.34
2022-08-31T19:31:00.898Z,24.31
2022-08-31T19:33:34.659Z,24.32
2022-08-31T19:36:08.261Z,24.34
2022-08-31T19:38:44.579Z,24.34
2022-08-31T19:41:23.002Z,24.35
2022-08-31T19:44:07.798Z,24.35
2022-08-31T19:46:34.111Z,24.37
2022-08-31T19:49:09.439Z,24.36
2022-08-31T19:51:48.531Z,24.35
2022-08-31T19:54:24.597Z,24.36
2022-08-31T19:56:58.424Z,24.37
2022-08-31T19:59:30.806Z,24.40
2022-08-31T20:02:06.022Z,24.43
2022-08-31T20:04:39.423Z,24.44
2022-08-31T20:07:13.993Z,24.43
2022-08-31T20:09:47.686Z,24.42
2022-08-31T20:12:20.755Z,24.40
2022-08-31T20:14:55.273Z,24.39
2022-08-31T20:17:29.966Z,24.39
2022-08-31T20:20:03.588Z,24.39
2022-08-31T20:22:38.351Z,24.39
2022-08-31T20:25:18.809Z,24.42
2022-08-31T20:27:47.050Z,24.41
2022-08-31T20:30:21.624Z,24.37
2022-08-31T20:32:54.666Z,24.35
2022-08-31T20:35:29.483Z,24.34
2022-08-31T20:38:02.783Z,24.34
2022-08-31T20:40:39.251Z,24.33
2022-08-31T20:43:13.708Z,24.35
2022-08-31T20:45:46.724Z,24.36
2022-08-31T20:48:37.493Z,24.38
2022-08-31T20:51:15.474Z,24.41
2022-08-31T20:53:50.097Z,24.41
2022-08-31T20:56:24.802Z,24.39
2022-08-31T20:58:57.787Z,24.34
2022-08-31T21:01:32.942Z,24.28
2022-08-31T21:04:07.171Z,24.24
2022-08-31T21:06:42.810Z,24.24
2022-08-31T21:09:15.994Z,24.24
2022-08-31T21:11:50.052Z,24.26
2022-08-31T21:14:23.782Z,24.25
2022-08-31T21:16:59.433Z,24.22
2022-08-31T21:19:32.370Z,24.18
2022-08-31T21:22:07.496Z,24.13
2022-08-31T21:24:43.762Z,24.07
2022-08-31T21:27:18.626Z,24.00
2022-08-31T21:29:51.672Z,23.94
2022-08-31T21:32:25.328Z,23.89
2022-08-31T21:34:58.857Z,23.83
2022-08-31T21:37:31.865Z,23.78
2022-08-31T21:40:07.024Z,23.71
2022-08-31T21:42:40.071Z,23.66
2022-08-31T21:45:13.234Z,23.62
2022-08-31T21:47:46.813Z,23.58
2022-08-31T21:50:20.137Z,23.56
2022-08-31T21:52:59.606Z,23.57
2022-08-31T21:55:29.592Z,23.61
2022-08-31T21:58:02.736Z,23.63
2022-08-31T22:00:35.744Z,23.64
2022-08-31T22:03:09.614Z,23.66
2022-08-31T22:05:43.662Z,23.65
2022-08-31T22:08:18.236Z,23.65
2022-08-31T22:10:51.763Z,23.64
2022-08-31T22:13:24.745Z,23.66
2022-08-31T22:16:00.541Z,23.66
2022-08-31T22:19:00.110Z,23.68
2022-08-31T22:21:14.865Z,23.69
2022-08-31T22:23:48.734Z,23.70
2022-08-31T22:26:24.141Z,23.69
2022-08-31T22:28:57.695Z,23.65
2022-08-31T22:31:31.459Z,23.61
2022-08-31T22:34:05.229Z,23.58
2022-08-31T22:36:40.950Z,23.58
2022-08-31T22:39:17.863Z,23.59
2022-08-31T22:41:52.281Z,23.61
2022-08-31T22:44:28.209Z,23.57
2022-08-31T22:47:01.325Z,23.53
2022-08-31T22:49:34.422Z,23.53
2022-08-31T22:52:07.995Z,23.51
2022-08-31T22:54:41.417Z,23.51
2022-08-31T22:57:14.684Z,23.47
2022-08-31T22:59:47.672Z,23.46
2022-08-31T23:02:20.591Z,23.40
2022-08-31T23:04:53.569Z,23.37
2022-08-31T23:07:26.632Z,23.33
2022-08-31T23:09:59.686Z,23.28
2022-08-31T23:12:33.198Z,23.25
2022-08-31T23:15:09.290Z,23.21
2022-08-31T23:17:45.943Z,23.15
2022-08-31T23:20:23.607Z,23.11
2022-08-31T23:22:56.680Z,23.11
2022-08-31T23:25:29.759Z,23.07
2022-08-31T23:28:02.926Z,23.04
2022-08-31T23:30:38.352Z,23.00
2022-08-31T23:33:11.203Z,22.97
2022-08-31T23:35:45.812Z,22.86
2022-08-31T23:38:18.821Z,22.86
2022-08-31T23:40:52.427Z,22.81
2022-08-31T23:43:26.953Z,22.75
2022-08-31T23:46:02.923Z,22.71
2022-08-31T23:48:35.743Z,22.68
2022-08-31T23:51:10.933Z,22.64
2022-08-31T23:53:49.758Z,22.62
2022-08-31T23:56:28.892Z,22.59
2022-08-31T23:59:03.627Z,22.58
